createdAt,value
2018-06-11T00:01:22.254Z,15.90
2018-06-11T00:05:16.300Z,15.93
2018-06-11T00:09:10.326Z,13.93
2018-06-11T00:13:05.470Z,16.00
2018-06-11T00:16:59.533Z,16.55
2018-06-11T00:20:53.580Z,15.93
2018-06-11T00:24:47.704Z,17.20
2018-06-11T00:28:41.933Z,16.37
2018-06-11T00:32:35.985Z,16.70
2018-06-11T00:36:29.939Z,16.47
2018-06-11T00:40:23.918Z,17.23
2018-06-11T00:44:17.951Z,17.40
2018-06-11T00:48:11.908Z,15.90
2018-06-11T00:52:05.970Z,16.60
2018-06-11T00:56:07.606Z,16.45
2018-06-11T01:00:01.744Z,15.43
2018-06-11T01:03:55.703Z,15.87
2018-06-11T01:07:49.575Z,15.90
2018-06-11T01:11:43.646Z,15.27
2018-06-11T01:15:37.682Z,16.55
2018-06-11T01:19:31.755Z,15.50
2018-06-11T01:23:25.677Z,15.67
2018-06-11T01:27:19.674Z,15.65
2018-06-11T01:31:13.654Z,16.42
2018-06-11T01:35:07.619Z,16.67
2018-06-11T01:39:02.097Z,16.50
2018-06-11T01:42:56.982Z,15.95
2018-06-11T01:46:51.515Z,15.53
2018-06-11T01:50:45.434Z,14.33
2018-06-11T01:54:39.679Z,16.70
2018-06-11T01:58:33.829Z,17.15
2018-06-11T02:02:27.931Z,18.00
2018-06-11T02:06:21.880Z,17.37
2018-06-11T02:10:15.858Z,17.97
2018-06-11T02:14:09.884Z,18.52
2018-06-11T02:18:04.183Z,17.10
2018-06-11T02:21:58.198Z,17.60
2018-06-11T02:25:52.365Z,17.90
2018-06-11T02:29:46.413Z,18.23
2018-06-11T02:33:40.464Z,16.93
2018-06-11T02:37:34.496Z,15.77
2018-06-11T02:41:28.617Z,15.37
2018-06-11T02:45:22.593Z,17.00
2018-06-11T02:49:16.661Z,16.77
2018-06-11T02:53:10.695Z,17.33
2018-06-11T02:57:05.008Z,16.60
2018-06-11T03:00:58.965Z,17.07
2018-06-11T03:04:53.166Z,15.88
2018-06-11T03:08:47.194Z,15.35
2018-06-11T03:12:41.328Z,17.47
2018-06-11T03:16:35.289Z,16.30
2018-06-11T03:20:29.635Z,15.33
2018-06-11T03:24:24.385Z,15.45
2018-06-11T03:28:18.377Z,15.33
2018-06-11T03:32:12.291Z,14.38
2018-06-11T03:36:07.261Z,15.33
2018-06-11T03:40:01.143Z,15.05
2018-06-11T03:43:55.231Z,14.87
2018-06-11T03:47:49.186Z,14.03
2018-06-11T03:51:43.150Z,14.60
2018-06-11T03:59:55.603Z,13.62
2018-06-11T04:03:50.560Z,13.90
2018-06-11T04:07:45.334Z,15.10
2018-06-11T04:11:39.994Z,14.98
2018-06-11T04:15:34.035Z,14.57
2018-06-11T04:19:28.052Z,15.10
2018-06-11T04:23:22.017Z,13.63
2018-06-11T04:27:16.078Z,15.28
2018-06-11T04:31:10.154Z,15.57
2018-06-11T04:35:04.210Z,15.50
2018-06-11T04:38:58.163Z,15.27
2018-06-11T04:42:52.340Z,14.67
2018-06-11T04:46:46.314Z,14.27
2018-06-11T04:50:40.467Z,13.53
2018-06-11T04:54:34.398Z,14.80
2018-06-11T04:58:28.514Z,13.58
2018-06-11T05:02:22.704Z,14.23
2018-06-11T05:06:16.668Z,12.60
2018-06-11T05:10:10.914Z,14.25
2018-06-11T05:14:06.327Z,12.43
2018-06-11T05:18:00.507Z,11.50
2018-06-11T05:21:54.588Z,13.10
2018-06-11T05:25:48.056Z,13.90
2018-06-11T05:29:42.137Z,13.83
2018-06-11T05:33:36.132Z,13.70
2018-06-11T05:37:30.361Z,13.70
2018-06-11T05:41:24.423Z,12.37
2018-06-11T05:45:18.501Z,12.53
2018-06-11T05:49:13.278Z,12.75
2018-06-11T05:53:07.521Z,12.88
2018-06-11T05:57:01.726Z,13.35
2018-06-11T06:00:55.717Z,13.78
2018-06-11T06:04:49.851Z,13.20
2018-06-11T06:08:44.095Z,13.32
2018-06-11T06:12:38.068Z,13.32
2018-06-11T06:16:32.089Z,12.20
2018-06-11T06:20:27.756Z,12.75
2018-06-11T06:24:22.075Z,12.93
2018-06-11T06:28:16.195Z,12.88
2018-06-11T06:32:11.012Z,13.72
2018-06-11T06:36:05.192Z,14.10
2018-06-11T06:39:59.630Z,12.18
2018-06-11T06:43:54.159Z,12.93
2018-06-11T06:47:48.134Z,12.67
2018-06-11T06:51:42.388Z,13.30
2018-06-11T06:55:37.198Z,13.00
2018-06-11T06:59:31.244Z,14.00
2018-06-11T07:03:26.000Z,13.45
2018-06-11T07:07:20.113Z,12.58
2018-06-11T07:11:14.220Z,13.00
2018-06-11T07:15:08.826Z,12.30
2018-06-11T07:19:02.598Z,13.70
2018-06-11T07:22:57.476Z,12.90
2018-06-11T07:26:52.284Z,13.78
2018-06-11T07:30:46.593Z,12.98
2018-06-11T07:34:40.697Z,13.77
2018-06-11T07:38:35.301Z,13.50
2018-06-11T07:42:30.015Z,13.57
2018-06-11T07:46:24.716Z,14.93
2018-06-11T07:50:18.988Z,15.00
2018-06-11T07:54:14.462Z,13.85
2018-06-11T07:58:08.468Z,13.77
2018-06-11T08:02:03.671Z,15.03
2018-06-11T08:05:57.656Z,14.57
2018-06-11T08:09:51.789Z,15.00
2018-06-11T08:13:45.817Z,14.20
2018-06-11T08:17:39.783Z,13.93
2018-06-11T08:21:33.884Z,14.33
2018-06-11T08:25:27.952Z,13.15
2018-06-11T08:29:22.009Z,13.38
2018-06-11T08:33:16.414Z,13.25
2018-06-11T08:37:10.433Z,13.17
2018-06-11T08:41:04.460Z,12.80
2018-06-11T08:44:58.633Z,13.73
2018-06-11T08:48:52.786Z,13.03
2018-06-11T08:52:46.860Z,13.17
2018-06-11T08:56:40.917Z,13.88
2018-06-11T09:00:34.827Z,13.58
2018-06-11T09:04:29.762Z,14.25
2018-06-11T09:08:25.407Z,14.15
2018-06-11T09:12:19.608Z,13.95
2018-06-11T09:16:13.882Z,14.77
2018-06-11T09:20:09.502Z,16.53
2018-06-11T09:24:03.616Z,14.67
2018-06-11T09:27:57.787Z,15.77
2018-06-11T09:31:51.961Z,14.50
2018-06-11T09:35:45.730Z,16.75
2018-06-11T09:39:39.794Z,15.43
2018-06-11T09:43:34.004Z,15.33
2018-06-11T09:47:28.172Z,15.03
2018-06-11T09:51:22.206Z,14.90
2018-06-11T09:59:40.710Z,15.10
2018-06-11T10:03:34.700Z,16.37
2018-06-11T10:07:29.519Z,17.20
2018-06-11T10:11:23.483Z,17.98
2018-06-11T10:15:17.538Z,23.65
2018-06-11T10:41:59.586Z,18.57
2018-06-11T10:47:02.195Z,20.57
2018-06-11T10:50:58.501Z,20.48
2018-06-11T10:54:52.726Z,17.62
2018-06-11T10:58:46.684Z,16.82
2018-06-11T11:02:43.769Z,16.17
2018-06-11T11:06:37.870Z,14.53
2018-06-11T11:10:32.120Z,12.40
2018-06-11T11:14:26.442Z,12.23
2018-06-11T11:18:20.523Z,12.60
2018-06-11T11:22:16.717Z,15.63
2018-06-11T11:26:10.320Z,12.03
2018-06-11T11:30:04.756Z,12.65
2018-06-11T11:33:58.841Z,11.75
2018-06-11T11:37:53.460Z,11.30
2018-06-11T11:41:48.135Z,11.73
2018-06-11T11:45:42.196Z,9.28
2018-06-11T11:49:36.339Z,8.58
2018-06-11T11:53:30.480Z,8.85
2018-06-11T11:57:25.779Z,9.75
2018-06-11T12:01:19.869Z,8.70
2018-06-11T12:05:19.657Z,9.30
2018-06-11T12:09:13.614Z,8.28
2018-06-11T12:13:09.628Z,8.95
2018-06-11T12:17:03.651Z,8.38
2018-06-11T12:20:57.884Z,8.00
2018-06-11T12:24:52.298Z,8.53
2018-06-11T12:28:46.994Z,7.90
2018-06-11T12:32:41.105Z,7.83
2018-06-11T12:36:37.027Z,6.97
2018-06-11T12:40:31.048Z,6.83
2018-06-11T12:44:25.647Z,6.58
2018-06-11T12:48:20.335Z,7.37
2018-06-11T12:52:14.538Z,6.97
2018-06-11T12:56:09.247Z,6.67
2018-06-11T13:00:04.929Z,5.80
2018-06-11T13:03:58.919Z,5.65
2018-06-11T13:07:52.969Z,5.70
2018-06-11T13:11:47.029Z,5.87
2018-06-11T13:15:41.179Z,6.17
2018-06-11T13:19:35.263Z,6.25
2018-06-11T13:23:29.533Z,6.80
2018-06-11T13:27:23.724Z,5.80
2018-06-11T13:31:17.771Z,5.70
2018-06-11T13:35:15.700Z,6.15
2018-06-11T13:39:09.769Z,5.35
2018-06-11T13:43:04.563Z,6.60
2018-06-11T13:47:03.566Z,6.10
2018-06-11T13:50:57.604Z,6.65
2018-06-11T13:54:51.767Z,6.55
2018-06-11T13:58:46.911Z,5.80
2018-06-11T14:02:42.290Z,5.40
2018-06-11T14:06:36.894Z,5.00
2018-06-11T14:10:31.229Z,5.05
2018-06-11T14:14:26.118Z,4.10
2018-06-11T14:18:21.028Z,4.40
2018-06-11T14:22:16.476Z,4.10
2018-06-11T14:26:11.488Z,7.15
2018-06-11T14:30:08.326Z,4.37
2018-06-11T14:34:03.301Z,3.77
2018-06-11T14:37:59.326Z,4.53
2018-06-11T14:41:54.487Z,3.83
2018-06-11T14:45:50.535Z,4.53
2018-06-11T14:49:44.935Z,4.10
2018-06-11T14:53:38.986Z,4.10
2018-06-11T14:57:33.000Z,3.72
2018-06-11T15:01:27.465Z,3.93
2018-06-11T15:05:22.404Z,4.17
2018-06-11T15:09:16.463Z,4.23
2018-06-11T15:13:10.651Z,4.10
2018-06-11T15:17:05.033Z,4.03
2018-06-11T15:20:59.997Z,4.30
2018-06-11T15:24:54.511Z,4.10
2018-06-11T15:28:48.615Z,3.95
2018-06-11T15:32:45.947Z,4.22
2018-06-11T15:36:40.035Z,4.10
2018-06-11T15:40:34.107Z,4.30
2018-06-11T15:44:28.906Z,4.70
2018-06-11T15:48:24.321Z,4.33
2018-06-11T15:52:23.420Z,4.20
2018-06-11T15:56:28.204Z,3.98
2018-06-11T16:00:25.196Z,4.45
2018-06-11T16:04:19.729Z,4.97
2018-06-11T16:08:14.088Z,4.87
2018-06-11T16:12:08.247Z,5.03
2018-06-11T16:16:02.513Z,5.10
2018-06-11T16:19:57.515Z,5.13
2018-06-11T16:23:52.393Z,4.50
2018-06-11T16:27:46.639Z,4.23
2018-06-11T16:31:40.873Z,5.30
2018-06-11T16:35:36.598Z,5.57
2018-06-11T16:39:30.840Z,5.65
2018-06-11T16:43:25.157Z,6.25
2018-06-11T16:47:19.453Z,5.87
2018-06-11T16:51:13.208Z,5.20
2018-06-11T16:55:07.265Z,4.90
2018-06-11T16:59:01.277Z,4.72
2018-06-11T17:02:55.477Z,5.03
2018-06-11T17:06:50.694Z,5.22
2018-06-11T17:10:46.264Z,5.10
2018-06-11T17:14:41.413Z,5.15
2018-06-11T17:18:35.428Z,4.92
2018-06-11T17:22:29.817Z,5.10
2018-06-11T17:26:23.640Z,4.87
2018-06-11T17:30:17.493Z,4.40
2018-06-11T17:34:11.444Z,4.50
2018-06-11T17:38:05.553Z,4.25
2018-06-11T17:41:59.659Z,4.67
2018-06-11T17:45:53.872Z,4.30
2018-06-11T17:49:47.929Z,4.55
2018-06-11T17:53:41.989Z,4.13
2018-06-11T17:57:36.311Z,4.40
2018-06-11T18:01:30.365Z,4.23
2018-06-11T18:05:24.454Z,3.77
2018-06-11T18:09:28.017Z,4.78
2018-06-11T18:13:22.503Z,4.25
2018-06-11T18:17:17.864Z,4.35
2018-06-11T18:21:12.194Z,4.83
2018-06-11T18:25:05.613Z,5.03
2018-06-11T18:28:59.699Z,5.00
2018-06-11T18:32:53.762Z,5.53
2018-06-11T18:36:48.077Z,5.22
2018-06-11T18:40:42.260Z,5.10
2018-06-11T18:44:36.374Z,5.28
2018-06-11T18:48:30.386Z,5.28
2018-06-11T18:52:24.644Z,5.03
2018-06-11T18:56:18.848Z,4.60
2018-06-11T19:00:12.578Z,4.62
2018-06-11T19:04:06.576Z,5.00
2018-06-11T19:08:00.707Z,4.80
2018-06-11T19:11:54.737Z,4.45
2018-06-11T19:15:48.895Z,4.85
2018-06-11T19:19:43.799Z,4.30
2018-06-11T19:23:37.912Z,4.95
2018-06-11T19:27:32.031Z,5.05
2018-06-11T19:31:26.577Z,4.27
2018-06-11T19:35:22.812Z,4.60
2018-06-11T19:39:19.203Z,4.80
2018-06-11T19:43:13.388Z,4.95
2018-06-11T19:47:07.461Z,4.70
2018-06-11T19:51:01.633Z,4.60
2018-06-11T19:54:55.516Z,4.83
2018-06-11T19:58:49.569Z,4.87
2018-06-11T20:02:44.818Z,4.60
2018-06-11T20:06:40.463Z,4.47
2018-06-11T20:10:37.214Z,4.78
2018-06-11T20:14:31.209Z,4.90
2018-06-11T20:18:28.222Z,5.10
2018-06-11T20:22:22.257Z,4.43
2018-06-11T20:26:17.031Z,4.67
2018-06-11T20:30:11.228Z,4.80
2018-06-11T20:34:06.286Z,4.65
2018-06-11T20:38:00.690Z,4.72
2018-06-11T20:42:00.560Z,4.83
2018-06-11T20:45:56.403Z,5.00
2018-06-11T20:49:51.702Z,4.20
2018-06-11T20:53:45.909Z,4.53
2018-06-11T20:57:53.685Z,4.83
2018-06-11T21:01:47.985Z,4.50
2018-06-11T21:05:49.752Z,4.25
2018-06-11T21:09:43.946Z,4.40
2018-06-11T21:13:40.332Z,4.13
2018-06-11T21:17:34.439Z,3.85
2018-06-11T21:21:31.913Z,4.10
2018-06-11T21:25:26.524Z,3.95
2018-06-11T21:29:21.604Z,4.40
2018-06-11T21:33:15.819Z,4.37
2018-06-11T21:37:10.843Z,4.33
2018-06-11T21:41:05.067Z,4.37
2018-06-11T21:44:59.360Z,4.20
2018-06-11T21:48:54.450Z,4.97
2018-06-11T21:52:50.264Z,4.95
2018-06-11T21:56:44.405Z,5.42
2018-06-11T22:00:38.437Z,4.92
2018-06-11T22:04:32.549Z,4.80
2018-06-11T22:08:26.723Z,5.45
2018-06-11T22:12:20.767Z,5.72
2018-06-11T22:16:14.793Z,6.12
2018-06-11T22:20:08.798Z,6.08
2018-06-11T22:24:02.858Z,6.30
2018-06-11T22:27:56.918Z,6.47
2018-06-11T22:31:50.904Z,6.55
2018-06-11T22:35:45.127Z,6.40
2018-06-11T22:39:39.447Z,7.40
2018-06-11T22:43:33.732Z,6.67
2018-06-11T22:47:27.771Z,7.07
2018-06-11T22:51:22.075Z,7.17
2018-06-11T22:55:16.066Z,7.30
2018-06-11T22:59:10.479Z,7.50
2018-06-11T23:03:04.417Z,7.85
2018-06-11T23:06:58.423Z,7.90
2018-06-11T23:10:52.553Z,7.90
2018-06-11T23:14:46.520Z,7.87
2018-06-11T23:18:40.584Z,8.50
2018-06-11T23:22:34.680Z,8.63
2018-06-11T23:26:28.639Z,8.48
2018-06-11T23:30:22.672Z,8.55
2018-06-11T23:34:16.739Z,8.73
2018-06-11T23:38:10.713Z,8.58
2018-06-11T23:42:04.801Z,8.80
2018-06-11T23:46:00.174Z,9.08
2018-06-11T23:49:55.838Z,8.70
2018-06-11T23:53:50.089Z,8.73
2018-06-11T23:57:44.224Z,8.80
